sensor_id;sensor_type;location;lat;lon;timestamp;temperature;humidity
19435;DHT22;9853;50.848;4.108;2022-10-22T03:07:28;15.10;99.90
19435;DHT22;9853;50.848;4.108;2022-10-22T03:09:30;15.10;99.90
19435;DHT22;9853;50.848;4.108;2022-10-22T03:11:34;15.20;99.90
19435;DHT22;9853;50.848;4.108;2022-10-22T03:13:34;15.10;99.90
19435;DHT22;9853;50.848;4.108;2022-10-22T03:15:35;15.10;99.90
19435;DHT22;9853;50.848;4.108;2022-10-22T03:17:37;15.20;99.90
19435;DHT22;9853;50.848;4.108;2022-10-22T03:19:39;15.20;99.90
19435;DHT22;9853;50.848;4.108;2022-10-22T03:21:41;15.10;99.90
19435;DHT22;9853;50.848;4.108;2022-10-22T03:23:43;15.10;99.90
19435;DHT22;9853;50.848;4.108;2022-10-22T03:25:50;15.10;99.90
19435;DHT22;9853;50.848;4.108;2022-10-22T03:27:51;15.00;99.90
19435;DHT22;9853;50.848;4.108;2022-10-22T03:29:53;15.20;99.90
19435;DHT22;9853;50.848;4.108;2022-10-22T03:31:54;15.10;99.90
19435;DHT22;9853;50.848;4.108;2022-10-22T03:33:55;15.10;99.90
19435;DHT22;9853;50.848;4.108;2022-10-22T03:35:59;15.10;99.90
19435;DHT22;9853;50.848;4.108;2022-10-22T03:38:00;15.10;99.90
19435;DHT22;9853;50.848;4.108;2022-10-22T03:40:23;15.10;99.90
19435;DHT22;9853;50.848;4.108;2022-10-22T03:42:24;15.10;99.90
19435;DHT22;9853;50.848;4.108;2022-10-22T03:44:26;15.10;99.90
19435;DHT22;9853;50.848;4.108;2022-10-22T03:46:29;15.00;99.90
19435;DHT22;9853;50.848;4.108;2022-10-22T03:48:30;15.10;99.90
19435;DHT22;9853;50.848;4.108;2022-10-22T03:50:30;15.10;99.90
19435;DHT22;9853;50.848;4.108;2022-10-22T03:52:38;15.20;99.90
19435;DHT22;9853;50.848;4.108;2022-10-22T03:54:39;15.20;99.90
19435;DHT22;9853;50.848;4.108;2022-10-22T03:56:40;15.20;99.90
19435;DHT22;9853;50.848;4.108;2022-10-22T03:58:41;15.30;99.90
19435;DHT22;9853;50.848;4.108;2022-10-22T04:00:42;15.30;99.90
19435;DHT22;9853;50.848;4.108;2022-10-22T04:02:58;15.40;99.90
19435;DHT22;9853;50.848;4.108;2022-10-22T04:04:58;15.40;99.90
19435;DHT22;9853;50.848;4.108;2022-10-22T04:06:59;15.20;99.90
19435;DHT22;9853;50.848;4.108;2022-10-22T04:09:00;15.20;99.90
19435;DHT22;9853;50.848;4.108;2022-10-22T04:11:02;15.30;99.90
19435;DHT22;9853;50.848;4.108;2022-10-22T04:13:02;15.30;99.90
19435;DHT22;9853;50.848;4.108;2022-10-22T04:15:04;15.30;99.90
19435;DHT22;9853;50.848;4.108;2022-10-22T04:17:05;15.20;99.90
19435;DHT22;9853;50.848;4.108;2022-10-22T04:19:06;15.20;99.90
19435;DHT22;9853;50.848;4.108;2022-10-22T04:21:09;15.20;99.90
19435;DHT22;9853;50.848;4.108;2022-10-22T04:23:10;15.10;99.90
19435;DHT22;9853;50.848;4.108;2022-10-22T04:25:12;15.10;99.90
19435;DHT22;9853;50.848;4.108;2022-10-22T04:27:13;15.00;99.90
19435;DHT22;9853;50.848;4.108;2022-10-22T04:29:14;15.10;99.90
19435;DHT22;9853;50.848;4.108;2022-10-22T04:31:21;15.10;99.90
19435;DHT22;9853;50.848;4.108;2022-10-22T04:33:22;15.10;99.90
19435;DHT22;9853;50.848;4.108;2022-10-22T04:35:24;15.10;99.90
19435;DHT22;9853;50.848;4.108;2022-10-22T04:37:41;15.10;99.90
19435;DHT22;9853;50.848;4.108;2022-10-22T04:39:43;15.10;99.90
19435;DHT22;9853;50.848;4.108;2022-10-22T04:41:43;15.10;99.90
19435;DHT22;9853;50.848;4.108;2022-10-22T04:43:45;15.10;99.90
19435;DHT22;9853;50.848;4.108;2022-10-22T04:45:54;15.10;99.90
19435;DHT22;9853;50.848;4.108;2022-10-22T04:47:55;15.20;99.90
19435;DHT22;9853;50.848;4.108;2022-10-22T04:49:59;15.20;99.90
19435;DHT22;9853;50.848;4.108;2022-10-22T04:52:00;15.20;99.90
19435;DHT22;9853;50.848;4.108;2022-10-22T04:54:22;15.20;99.90
19435;DHT22;9853;50.848;4.108;2022-10-22T04:56:27;15.20;99.90
19435;DHT22;9853;50.848;4.108;2022-10-22T04:58:29;15.20;99.90
19435;DHT22;9853;50.848;4.108;2022-10-22T05:00:29;15.20;99.90
19435;DHT22;9853;50.848;4.108;2022-10-22T05:02:34;15.20;99.90
19435;DHT22;9853;50.848;4.108;2022-10-22T05:04:42;15.20;99.90
19435;DHT22;9853;50.848;4.108;2022-10-22T05:06:44;15.20;99.90
19435;DHT22;9853;50.848;4.108;2022-10-22T05:08:46;15.20;99.90
19435;DHT22;9853;50.848;4.108;2022-10-22T05:10:55;15.40;99.90
19435;DHT22;9853;50.848;4.108;2022-10-22T05:12:59;15.50;99.90
19435;DHT22;9853;50.848;4.108;2022-10-22T05:15:00;15.60;99.90
19435;DHT22;9853;50.848;4.108;2022-10-22T05:17:06;15.70;99.90
19435;DHT22;9853;50.848;4.108;2022-10-22T05:19:07;15.70;99.90
19435;DHT22;9853;50.848;4.108;2022-10-22T05:21:13;15.80;99.90
19435;DHT22;9853;50.848;4.108;2022-10-22T05:23:14;15.90;99.90
19435;DHT22;9853;50.848;4.108;2022-10-22T05:25:14;15.90;99.90
19435;DHT22;9853;50.848;4.108;2022-10-22T05:27:16;15.90;99.90
19435;DHT22;9853;50.848;4.108;2022-10-22T05:29:24;15.80;99.90
19435;DHT22;9853;50.848;4.108;2022-10-22T05:31:25;15.80;99.90
19435;DHT22;9853;50.848;4.108;2022-10-22T05:33:42;15.70;99.90
19435;DHT22;9853;50.848;4.108;2022-10-22T05:35:50;15.70;99.90
19435;DHT22;9853;50.848;4.108;2022-10-22T05:37:58;15.70;99.90
19435;DHT22;9853;50.848;4.108;2022-10-22T05:40:02;15.80;99.90
19435;DHT22;9853;50.848;4.108;2022-10-22T05:42:13;15.70;99.90
19435;DHT22;9853;50.848;4.108;2022-10-22T05:44:17;15.70;99.90
19435;DHT22;9853;50.848;4.108;2022-10-22T05:46:20;15.70;99.90
19435;DHT22;9853;50.848;4.108;2022-10-22T05:48:21;15.70;99.90
19435;DHT22;9853;50.848;4.108;2022-10-22T05:50:24;15.70;99.90
19435;DHT22;9853;50.848;4.108;2022-10-22T05:52:31;15.80;99.90
19435;DHT22;9853;50.848;4.108;2022-10-22T05:55:23;15.90;99.90
19435;DHT22;9853;50.848;4.108;2022-10-22T05:57:36;15.80;99.90
19435;DHT22;9853;50.848;4.108;2022-10-22T05:59:41;15.80;99.90
19435;DHT22;9853;50.848;4.108;2022-10-22T06:01:42;15.90;99.90
19435;DHT22;9853;50.848;4.108;2022-10-22T06:04:12;15.90;99.90
19435;DHT22;9853;50.848;4.108;2022-10-22T06:06:25;15.90;99.90
19435;DHT22;9853;50.848;4.108;2022-10-22T06:08:30;15.80;99.90
19435;DHT22;9853;50.848;4.108;2022-10-22T06:10:31;15.80;99.90
19435;DHT22;9853;50.848;4.108;2022-10-22T06:12:32;15.90;99.90
19435;DHT22;9853;50.848;4.108;2022-10-22T06:14:35;15.90;99.90
19435;DHT22;9853;50.848;4.108;2022-10-22T06:16:38;15.90;99.90
19435;DHT22;9853;50.848;4.108;2022-10-22T06:18:40;16.00;99.90
19435;DHT22;9853;50.848;4.108;2022-10-22T06:20:41;15.90;99.90
19435;DHT22;9853;50.848;4.108;2022-10-22T06:22:48;15.90;99.90
19435;DHT22;9853;50.848;4.108;2022-10-22T06:24:55;16.00;99.90
19435;DHT22;9853;50.848;4.108;2022-10-22T06:26:59;16.10;99.90
19435;DHT22;9853;50.848;4.108;2022-10-22T06:29:00;16.00;99.90
19435;DHT22;9853;50.848;4.108;2022-10-22T06:31:02;16.20;99.90
19435;DHT22;9853;50.848;4.108;2022-10-22T06:33:03;16.00;99.90
19435;DHT22;9853;50.848;4.108;2022-10-22T06:35:04;16.00;99.90
19435;DHT22;9853;50.848;4.108;2022-10-22T06:37:05;16.10;99.90
19435;DHT22;9853;50.848;4.108;2022-10-22T06:39:06;16.10;99.90
19435;DHT22;9853;50.848;4.108;2022-10-22T06:41:11;16.10;99.90
19435;DHT22;9853;50.848;4.108;2022-10-22T06:43:15;16.10;99.90
19435;DHT22;9853;50.848;4.108;2022-10-22T06:45:18;16.00;99.90
19435;DHT22;9853;50.848;4.108;2022-10-22T06:47:21;16.00;99.90
19435;DHT22;9853;50.848;4.108;2022-10-22T06:49:23;16.10;99.90
19435;DHT22;9853;50.848;4.108;2022-10-22T06:51:32;16.10;99.90
19435;DHT22;9853;50.848;4.108;2022-10-22T06:53:38;16.10;99.90
19435;DHT22;9853;50.848;4.108;2022-10-22T06:55:41;16.10;99.90
19435;DHT22;9853;50.848;4.108;2022-10-22T06:57:42;16.00;99.90
19435;DHT22;9853;50.848;4.108;2022-10-22T06:59:45;16.00;99.90
19435;DHT22;9853;50.848;4.108;2022-10-22T07:01:50;16.10;99.90
19435;DHT22;9853;50.848;4.108;2022-10-22T07:03:51;16.00;99.90
19435;DHT22;9853;50.848;4.108;2022-10-22T07:06:01;15.90;99.90
19435;DHT22;9853;50.848;4.108;2022-10-22T07:08:23;15.90;99.90
19435;DHT22;9853;50.848;4.108;2022-10-22T07:10:24;16.10;99.90
19435;DHT22;9853;50.848;4.108;2022-10-22T07:12:25;16.10;99.90
19435;DHT22;9853;50.848;4.108;2022-10-22T07:14:25;16.10;99.90
19435;DHT22;9853;50.848;4.108;2022-10-22T07:16:34;16.20;99.90
19435;DHT22;9853;50.848;4.108;2022-10-22T07:18:35;16.20;99.90
19435;DHT22;9853;50.848;4.108;2022-10-22T07:20:37;16.20;99.90
19435;DHT22;9853;50.848;4.108;2022-10-22T07:22:37;16.20;99.90
19435;DHT22;9853;50.848;4.108;2022-10-22T07:24:38;16.20;99.90
19435;DHT22;9853;50.848;4.108;2022-10-22T07:26:39;16.30;99.90
19435;DHT22;9853;50.848;4.108;2022-10-22T07:28:40;16.30;99.90
19435;DHT22;9853;50.848;4.108;2022-10-22T07:30:41;16.40;99.90
19435;DHT22;9853;50.848;4.108;2022-10-22T07:32:42;16.30;99.90
19435;DHT22;9853;50.848;4.108;2022-10-22T07:34:42;16.40;99.90
19435;DHT22;9853;50.848;4.108;2022-10-22T07:36:43;16.40;99.90
19435;DHT22;9853;50.848;4.108;2022-10-22T07:38:46;16.50;99.90
19435;DHT22;9853;50.848;4.108;2022-10-22T07:40:46;16.60;99.90
19435;DHT22;9853;50.848;4.108;2022-10-22T07:42:47;16.70;99.90
19435;DHT22;9853;50.848;4.108;2022-10-22T07:44:48;16.80;99.90
19435;DHT22;9853;50.848;4.108;2022-10-22T07:46:52;16.90;99.90
19435;DHT22;9853;50.848;4.108;2022-10-22T07:48:53;16.90;99.90
19435;DHT22;9853;50.848;4.108;2022-10-22T07:50:54;17.10;99.90
19435;DHT22;9853;50.848;4.108;2022-10-22T07:52:54;17.10;99.90
19435;DHT22;9853;50.848;4.108;2022-10-22T07:54:55;17.30;99.90
19435;DHT22;9853;50.848;4.108;2022-10-22T07:56:56;17.20;99.90
19435;DHT22;9853;50.848;4.108;2022-10-22T07:58:57;17.10;99.90
19435;DHT22;9853;50.848;4.108;2022-10-22T08:00:59;17.10;99.90
19435;DHT22;9853;50.848;4.108;2022-10-22T08:03:00;17.10;99.90
19435;DHT22;9853;50.848;4.108;2022-10-22T08:05:01;17.10;99.90
19435;DHT22;9853;50.848;4.108;2022-10-22T08:07:02;17.00;99.90
19435;DHT22;9853;50.848;4.108;2022-10-22T08:09:07;17.00;99.90
19435;DHT22;9853;50.848;4.108;2022-10-22T08:11:14;17.00;99.90
19435;DHT22;9853;50.848;4.108;2022-10-22T08:13:15;17.20;99.90
19435;DHT22;9853;50.848;4.108;2022-10-22T08:15:19;17.20;99.90
19435;DHT22;9853;50.848;4.108;2022-10-22T08:17:31;17.10;99.90
19435;DHT22;9853;50.848;4.108;2022-10-22T08:19:35;17.10;99.90
19435;DHT22;9853;50.848;4.108;2022-10-22T08:21:43;16.80;99.90
19435;DHT22;9853;50.848;4.108;2022-10-22T08:23:44;16.90;99.90
19435;DHT22;9853;50.848;4.108;2022-10-22T08:25:45;17.10;99.90
19435;DHT22;9853;50.848;4.108;2022-10-22T08:27:47;17.30;99.90
19435;DHT22;9853;50.848;4.108;2022-10-22T08:29:48;17.50;99.90
19435;DHT22;9853;50.848;4.108;2022-10-22T08:31:52;17.90;99.90
19435;DHT22;9853;50.848;4.108;2022-10-22T08:33:53;18.10;99.90
19435;DHT22;9853;50.848;4.108;2022-10-22T08:35:54;18.30;99.90
19435;DHT22;9853;50.848;4.108;2022-10-22T08:37:55;18.60;99.90
19435;DHT22;9853;50.848;4.108;2022-10-22T08:39:58;18.80;99.90
19435;DHT22;9853;50.848;4.108;2022-10-22T08:49:45;18.10;99.90
19435;DHT22;9853;50.848;4.108;2022-10-22T08:51:49;18.10;99.90
19435;DHT22;9853;50.848;4.108;2022-10-22T08:56:26;18.30;99.90
19435;DHT22;9853;50.848;4.108;2022-10-22T08:58:55;18.70;99.90
19435;DHT22;9853;50.848;4.108;2022-10-22T09:01:20;19.10;99.90
19435;DHT22;9853;50.848;4.108;2022-10-22T09:08:16;19.50;99.90
19435;DHT22;9853;50.848;4.108;2022-10-22T09:10:18;19.50;99.90
19435;DHT22;9853;50.848;4.108;2022-10-22T09:12:22;19.50;99.90
19435;DHT22;9853;50.848;4.108;2022-10-22T09:14:25;19.70;99.90
19435;DHT22;9853;50.848;4.108;2022-10-22T09:19:16;20.00;99.90
19435;DHT22;9853;50.848;4.108;2022-10-22T09:24:03;19.50;99.90
19435;DHT22;9853;50.848;4.108;2022-10-22T09:26:15;19.50;99.90
19435;DHT22;9853;50.848;4.108;2022-10-22T09:28:16;19.40;99.90
19435;DHT22;9853;50.848;4.108;2022-10-22T09:30:22;19.30;99.90
19435;DHT22;9853;50.848;4.108;2022-10-22T09:32:24;19.30;99.90
19435;DHT22;9853;50.848;4.108;2022-10-22T09:34:27;19.10;99.90
19435;DHT22;9853;50.848;4.108;2022-10-22T09:36:28;19.10;99.90
19435;DHT22;9853;50.848;4.108;2022-10-22T09:38:32;19.30;99.90
19435;DHT22;9853;50.848;4.108;2022-10-22T09:40:47;19.20;99.90
19435;DHT22;9853;50.848;4.108;2022-10-22T09:42:49;19.00;99.90
19435;DHT22;9853;50.848;4.108;2022-10-22T09:44:57;18.90;99.90
19435;DHT22;9853;50.848;4.108;2022-10-22T09:47:37;18.60;99.90
19435;DHT22;9853;50.848;4.108;2022-10-22T09:57:14;18.60;99.90
19435;DHT22;9853;50.848;4.108;2022-10-22T09:59:23;18.60;99.90
19435;DHT22;9853;50.848;4.108;2022-10-22T10:08:37;19.20;99.90
19435;DHT22;9853;50.848;4.108;2022-10-22T10:27:07;19.90;99.90
19435;DHT22;9853;50.848;4.108;2022-10-22T10:33:57;20.10;99.90
19435;DHT22;9853;50.848;4.108;2022-10-22T10:38:59;19.80;99.90
19435;DHT22;9853;50.848;4.108;2022-10-22T10:44:12;19.60;99.90
19435;DHT22;9853;50.848;4.108;2022-10-22T10:46:31;19.70;99.90
19435;DHT22;9853;50.848;4.108;2022-10-22T10:48:55;19.90;99.90
19435;DHT22;9853;50.848;4.108;2022-10-22T10:51:07;20.00;99.90
19435;DHT22;9853;50.848;4.108;2022-10-22T10:55:58;20.20;99.90
19435;DHT22;9853;50.848;4.108;2022-10-22T11:00:21;20.50;99.90
19435;DHT22;9853;50.848;4.108;2022-10-22T11:05:06;20.50;99.90
19435;DHT22;9853;50.848;4.108;2022-10-22T11:07:26;20.70;99.90
19435;DHT22;9853;50.848;4.108;2022-10-22T11:09:36;20.50;99.90
19435;DHT22;9853;50.848;4.108;2022-10-22T11:11:50;20.60;99.90
19435;DHT22;9853;50.848;4.108;2022-10-22T11:16:31;20.70;99.90
19435;DHT22;9853;50.848;4.108;2022-10-22T11:18:43;20.70;99.90
19435;DHT22;9853;50.848;4.108;2022-10-22T11:21:26;20.70;99.90
19435;DHT22;9853;50.848;4.108;2022-10-22T11:23:43;20.70;99.90
19435;DHT22;9853;50.848;4.108;2022-10-22T11:25:47;20.50;99.90
19435;DHT22;9853;50.848;4.108;2022-10-22T11:27:52;20.30;99.90
19435;DHT22;9853;50.848;4.108;2022-10-22T11:30:07;20.30;99.90
19435;DHT22;9853;50.848;4.108;2022-10-22T11:32:17;20.20;99.90
19435;DHT22;9853;50.848;4.108;2022-10-22T11:34:35;19.90;99.90
19435;DHT22;9853;50.848;4.108;2022-10-22T11:36:41;19.90;99.90
19435;DHT22;9853;50.848;4.108;2022-10-22T11:38:42;19.70;99.90
19435;DHT22;9853;50.848;4.108;2022-10-22T11:40:50;19.70;99.90
19435;DHT22;9853;50.848;4.108;2022-10-22T11:42:53;19.60;99.90
19435;DHT22;9853;50.848;4.108;2022-10-22T11:44:59;19.70;99.90
19435;DHT22;9853;50.848;4.108;2022-10-22T11:47:23;19.80;99.90
19435;DHT22;9853;50.848;4.108;2022-10-22T11:54:43;20.10;99.90
19435;DHT22;9853;50.848;4.108;2022-10-22T11:56:44;20.00;99.90
19435;DHT22;9853;50.848;4.108;2022-10-22T11:58:46;20.00;99.90
19435;DHT22;9853;50.848;4.108;2022-10-22T12:00:47;20.00;99.90
19435;DHT22;9853;50.848;4.108;2022-10-22T12:03:14;20.10;99.90
19435;DHT22;9853;50.848;4.108;2022-10-22T12:07:34;20.30;99.90
19435;DHT22;9853;50.848;4.108;2022-10-22T12:09:51;20.40;99.90
19435;DHT22;9853;50.848;4.108;2022-10-22T12:11:52;20.40;99.90
19435;DHT22;9853;50.848;4.108;2022-10-22T12:16:22;20.60;99.90
19435;DHT22;9853;50.848;4.108;2022-10-22T12:18:34;20.70;99.90
19435;DHT22;9853;50.848;4.108;2022-10-22T12:20:38;21.00;99.90
19435;DHT22;9853;50.848;4.108;2022-10-22T12:22:39;21.10;99.90
19435;DHT22;9853;50.848;4.108;2022-10-22T12:24:44;21.10;99.90
19435;DHT22;9853;50.848;4.108;2022-10-22T12:26:45;21.10;99.90
19435;DHT22;9853;50.848;4.108;2022-10-22T12:28:50;21.10;99.90
19435;DHT22;9853;50.848;4.108;2022-10-22T12:30:51;21.10;99.90
19435;DHT22;9853;50.848;4.108;2022-10-22T12:33:04;20.90;99.90
19435;DHT22;9853;50.848;4.108;2022-10-22T12:35:15;20.60;99.90
19435;DHT22;9853;50.848;4.108;2022-10-22T12:37:18;20.40;99.90
19435;DHT22;9853;50.848;4.108;2022-10-22T12:39:23;20.60;99.90
19435;DHT22;9853;50.848;4.108;2022-10-22T12:41:35;20.50;99.90
19435;DHT22;9853;50.848;4.108;2022-10-22T12:43:36;20.60;99.90
19435;DHT22;9853;50.848;4.108;2022-10-22T12:45:39;20.90;99.90
19435;DHT22;9853;50.848;4.108;2022-10-22T12:47:45;21.00;99.90
19435;DHT22;9853;50.848;4.108;2022-10-22T12:49:48;21.10;99.90
19435;DHT22;9853;50.848;4.108;2022-10-22T12:51:49;21.30;99.90
19435;DHT22;9853;50.848;4.108;2022-10-22T12:53:54;21.00;99.90
19435;DHT22;9853;50.848;4.108;2022-10-22T12:56:00;20.90;99.90
19435;DHT22;9853;50.848;4.108;2022-10-22T12:58:06;21.10;99.90
19435;DHT22;9853;50.848;4.108;2022-10-22T13:00:23;21.30;99.90
19435;DHT22;9853;50.848;4.108;2022-10-22T13:02:25;21.40;99.90
19435;DHT22;9853;50.848;4.108;2022-10-22T13:04:31;21.70;99.90
19435;DHT22;9853;50.848;4.108;2022-10-22T13:06:34;21.70;99.90
19435;DHT22;9853;50.848;4.108;2022-10-22T13:08:38;21.70;99.90
19435;DHT22;9853;50.848;4.108;2022-10-22T13:10:40;21.60;99.90
19435;DHT22;9853;50.848;4.108;2022-10-22T13:12:47;21.70;99.90
19435;DHT22;9853;50.848;4.108;2022-10-22T13:14:48;21.90;99.90
19435;DHT22;9853;50.848;4.108;2022-10-22T13:21:47;22.10;99.90
19435;DHT22;9853;50.848;4.108;2022-10-22T13:23:56;22.10;99.90
19435;DHT22;9853;50.848;4.108;2022-10-22T13:26:07;22.10;99.90
19435;DHT22;9853;50.848;4.108;2022-10-22T13:28:18;22.00;99.90
19435;DHT22;9853;50.848;4.108;2022-10-22T13:30:29;22.00;99.90
19435;DHT22;9853;50.848;4.108;2022-10-22T13:32:32;21.60;99.90
19435;DHT22;9853;50.848;4.108;2022-10-22T13:34:33;21.40;99.90
19435;DHT22;9853;50.848;4.108;2022-10-22T13:36:35;21.50;99.90
19435;DHT22;9853;50.848;4.108;2022-10-22T13:38:36;21.50;99.90
19435;DHT22;9853;50.848;4.108;2022-10-22T13:40:37;21.20;99.90
19435;DHT22;9853;50.848;4.108;2022-10-22T13:42:38;21.20;99.90
19435;DHT22;9853;50.848;4.108;2022-10-22T13:44:39;21.30;99.90
19435;DHT22;9853;50.848;4.108;2022-10-22T13:46:39;21.40;99.90
19435;DHT22;9853;50.848;4.108;2022-10-22T13:48:43;21.40;99.90
19435;DHT22;9853;50.848;4.108;2022-10-22T13:50:44;21.50;99.90
19435;DHT22;9853;50.848;4.108;2022-10-22T13:52:52;21.70;99.90
19435;DHT22;9853;50.848;4.108;2022-10-22T13:54:53;21.60;99.90
19435;DHT22;9853;50.848;4.108;2022-10-22T13:56:54;21.10;99.90
19435;DHT22;9853;50.848;4.108;2022-10-22T13:58:55;21.20;99.90
19435;DHT22;9853;50.848;4.108;2022-10-22T14:00:57;21.20;99.90
19435;DHT22;9853;50.848;4.108;2022-10-22T14:02:59;20.90;99.90
19435;DHT22;9853;50.848;4.108;2022-10-22T14:05:00;20.80;99.90
19435;DHT22;9853;50.848;4.108;2022-10-22T14:07:11;20.70;99.90
19435;DHT22;9853;50.848;4.108;2022-10-22T14:09:14;20.50;99.90
19435;DHT22;9853;50.848;4.108;2022-10-22T14:11:15;20.60;99.90
19435;DHT22;9853;50.848;4.108;2022-10-22T14:13:18;20.70;99.90
19435;DHT22;9853;50.848;4.108;2022-10-22T14:15:21;20.80;99.90
19435;DHT22;9853;50.848;4.108;2022-10-22T14:17:23;21.00;99.90
19435;DHT22;9853;50.848;4.108;2022-10-22T14:19:24;21.10;99.90
19435;DHT22;9853;50.848;4.108;2022-10-22T14:21:24;21.10;99.90
19435;DHT22;9853;50.848;4.108;2022-10-22T14:23:29;21.00;99.90
19435;DHT22;9853;50.848;4.108;2022-10-22T14:25:30;21.00;99.90
19435;DHT22;9853;50.848;4.108;2022-10-22T14:27:31;20.90;99.90
19435;DHT22;9853;50.848;4.108;2022-10-22T14:29:32;21.00;99.90
19435;DHT22;9853;50.848;4.108;2022-10-22T14:31:32;21.10;99.90
19435;DHT22;9853;50.848;4.108;2022-10-22T14:33:33;21.00;99.90
19435;DHT22;9853;50.848;4.108;2022-10-22T14:35:34;21.20;99.90
19435;DHT22;9853;50.848;4.108;2022-10-22T14:37:34;21.20;99.90
19435;DHT22;9853;50.848;4.108;2022-10-22T14:39:35;21.10;99.90
19435;DHT22;9853;50.848;4.108;2022-10-22T14:41:36;21.30;99.90
19435;DHT22;9853;50.848;4.108;2022-10-22T14:43:37;21.30;99.90
19435;DHT22;9853;50.848;4.108;2022-10-22T14:45:37;21.30;99.90
19435;DHT22;9853;50.848;4.108;2022-10-22T14:47:38;21.20;99.90
19435;DHT22;9853;50.848;4.108;2022-10-22T14:49:39;21.20;99.90
19435;DHT22;9853;50.848;4.108;2022-10-22T14:51:40;21.20;99.90
19435;DHT22;9853;50.848;4.108;2022-10-22T14:53:41;21.10;99.90
19435;DHT22;9853;50.848;4.108;2022-10-22T14:55:43;21.10;99.90
19435;DHT22;9853;50.848;4.108;2022-10-22T14:57:44;21.20;99.90
19435;DHT22;9853;50.848;4.108;2022-10-22T14:59:45;21.20;99.90
19435;DHT22;9853;50.848;4.108;2022-10-22T15:01:46;21.10;99.90
19435;DHT22;9853;50.848;4.108;2022-10-22T15:03:47;21.10;99.90
19435;DHT22;9853;50.848;4.108;2022-10-22T15:05:50;21.10;99.90
19435;DHT22;9853;50.848;4.108;2022-10-22T15:07:53;21.00;99.90
19435;DHT22;9853;50.848;4.108;2022-10-22T15:09:53;20.90;99.90
19435;DHT22;9853;50.848;4.108;2022-10-22T15:11:54;21.00;99.90
19435;DHT22;9853;50.848;4.108;2022-10-22T15:13:55;20.90;99.90
19435;DHT22;9853;50.848;4.108;2022-10-22T15:15:56;21.00;99.90
19435;DHT22;9853;50.848;4.108;2022-10-22T15:17:57;21.00;99.90
19435;DHT22;9853;50.848;4.108;2022-10-22T15:19:58;21.00;99.90
19435;DHT22;9853;50.848;4.108;2022-10-22T15:22:03;20.90;99.90
19435;DHT22;9853;50.848;4.108;2022-10-22T15:24:05;20.80;99.90
19435;DHT22;9853;50.848;4.108;2022-10-22T15:26:10;20.90;99.90
19435;DHT22;9853;50.848;4.108;2022-10-22T15:28:11;21.00;99.90
19435;DHT22;9853;50.848;4.108;2022-10-22T15:30:12;21.00;99.90
19435;DHT22;9853;50.848;4.108;2022-10-22T15:32:13;21.00;99.90
19435;DHT22;9853;50.848;4.108;2022-10-22T15:34:28;20.90;99.90
19435;DHT22;9853;50.848;4.108;2022-10-22T15:36:29;20.90;99.90
19435;DHT22;9853;50.848;4.108;2022-10-22T15:38:30;20.80;99.90
19435;DHT22;9853;50.848;4.108;2022-10-22T15:40:31;20.50;99.90
19435;DHT22;9853;50.848;4.108;2022-10-22T15:42:32;20.50;99.90
19435;DHT22;9853;50.848;4.108;2022-10-22T15:44:33;20.50;99.90
19435;DHT22;9853;50.848;4.108;2022-10-22T15:46:34;20.50;99.90
19435;DHT22;9853;50.848;4.108;2022-10-22T15:48:35;20.40;99.90
19435;DHT22;9853;50.848;4.108;2022-10-22T15:50:38;20.40;99.90
19435;DHT22;9853;50.848;4.108;2022-10-22T15:52:39;20.40;99.90
19435;DHT22;9853;50.848;4.108;2022-10-22T15:54:40;20.30;99.90
19435;DHT22;9853;50.848;4.108;2022-10-22T15:56:40;20.20;99.90
19435;DHT22;9853;50.848;4.108;2022-10-22T15:58:41;20.20;99.90
19435;DHT22;9853;50.848;4.108;2022-10-22T16:00:42;20.10;99.90
19435;DHT22;9853;50.848;4.108;2022-10-22T16:02:43;20.10;99.90
19435;DHT22;9853;50.848;4.108;2022-10-22T16:04:43;20.10;99.90
19435;DHT22;9853;50.848;4.108;2022-10-22T16:06:47;20.00;99.90
19435;DHT22;9853;50.848;4.108;2022-10-22T16:08:48;19.90;99.90
19435;DHT22;9853;50.848;4.108;2022-10-22T16:10:49;19.90;99.90
19435;DHT22;9853;50.848;4.108;2022-10-22T16:12:49;19.90;99.90
19435;DHT22;9853;50.848;4.108;2022-10-22T16:14:51;19.80;99.90
19435;DHT22;9853;50.848;4.108;2022-10-22T16:16:54;19.70;99.90
19435;DHT22;9853;50.848;4.108;2022-10-22T16:18:55;19.70;99.90
19435;DHT22;9853;50.848;4.108;2022-10-22T16:20:56;19.70;99.90
19435;DHT22;9853;50.848;4.108;2022-10-22T16:22:56;19.70;99.90
19435;DHT22;9853;50.848;4.108;2022-10-22T16:24:57;19.70;99.90
19435;DHT22;9853;50.848;4.108;2022-10-22T16:26:58;19.80;99.90
19435;DHT22;9853;50.848;4.108;2022-10-22T16:28:59;19.70;99.90
19435;DHT22;9853;50.848;4.108;2022-10-22T16:31:02;19.60;99.90
19435;DHT22;9853;50.848;4.108;2022-10-22T16:33:04;19.70;99.90
19435;DHT22;9853;50.848;4.108;2022-10-22T16:35:06;19.60;99.90
19435;DHT22;9853;50.848;4.108;2022-10-22T16:37:07;19.50;99.90
19435;DHT22;9853;50.848;4.108;2022-10-22T16:39:09;19.50;99.90
19435;DHT22;9853;50.848;4.108;2022-10-22T16:41:16;19.40;99.90
19435;DHT22;9853;50.848;4.108;2022-10-22T16:43:18;19.30;99.90
19435;DHT22;9853;50.848;4.108;2022-10-22T16:45:19;19.20;99.90
19435;DHT22;9853;50.848;4.108;2022-10-22T16:47:19;19.20;99.90
19435;DHT22;9853;50.848;4.108;2022-10-22T16:49:20;19.20;99.90
19435;DHT22;9853;50.848;4.108;2022-10-22T16:51:23;19.10;99.90
19435;DHT22;9853;50.848;4.108;2022-10-22T16:53:24;19.10;99.90
19435;DHT22;9853;50.848;4.108;2022-10-22T16:55:24;19.00;99.90
19435;DHT22;9853;50.848;4.108;2022-10-22T16:57:26;19.00;99.90
19435;DHT22;9853;50.848;4.108;2022-10-22T16:59:26;18.90;99.90
19435;DHT22;9853;50.848;4.108;2022-10-22T17:01:27;18.90;99.90
19435;DHT22;9853;50.848;4.108;2022-10-22T17:03:29;18.90;99.90
19435;DHT22;9853;50.848;4.108;2022-10-22T17:05:29;18.80;99.90
19435;DHT22;9853;50.848;4.108;2022-10-22T17:07:31;18.80;99.90
19435;DHT22;9853;50.848;4.108;2022-10-22T17:09:31;18.70;99.90
19435;DHT22;9853;50.848;4.108;2022-10-22T17:11:32;18.70;99.90
19435;DHT22;9853;50.848;4.108;2022-10-22T17:13:35;18.60;99.90
19435;DHT22;9853;50.848;4.108;2022-10-22T17:15:35;18.50;99.90
19435;DHT22;9853;50.848;4.108;2022-10-22T17:17:37;18.40;99.90
19435;DHT22;9853;50.848;4.108;2022-10-22T17:19:38;18.40;99.90
19435;DHT22;9853;50.848;4.108;2022-10-22T17:21:39;18.30;99.90
19435;DHT22;9853;50.848;4.108;2022-10-22T17:23:39;18.30;99.90
19435;DHT22;9853;50.848;4.108;2022-10-22T17:25:43;18.30;99.90
19435;DHT22;9853;50.848;4.108;2022-10-22T17:27:44;18.30;99.90
19435;DHT22;9853;50.848;4.108;2022-10-22T17:29:45;18.30;99.90
19435;DHT22;9853;50.848;4.108;2022-10-22T17:31:45;18.20;99.90
19435;DHT22;9853;50.848;4.108;2022-10-22T17:33:47;18.20;99.90
19435;DHT22;9853;50.848;4.108;2022-10-22T17:35:48;18.20;99.90
19435;DHT22;9853;50.848;4.108;2022-10-22T17:37:52;18.10;99.90
19435;DHT22;9853;50.848;4.108;2022-10-22T17:39:52;18.10;99.90
19435;DHT22;9853;50.848;4.108;2022-10-22T17:41:53;18.20;99.90
19435;DHT22;9853;50.848;4.108;2022-10-22T17:43:55;18.20;99.90
19435;DHT22;9853;50.848;4.108;2022-10-22T17:46:08;18.30;99.90
19435;DHT22;9853;50.848;4.108;2022-10-22T17:48:12;18.30;99.90
19435;DHT22;9853;50.848;4.108;2022-10-22T17:50:13;18.10;99.90